aviador You're here:

OINR Decoded Metar

RAMSAR in IRAN
Report Time2017-10-22 06:00:00
UTC Time2017-10-22 06:35:30
Flight Rules vfr VFR
Wind110° at 04 kt
W.Decomp.*RWY 13: 3.7 kt HW 1.6 kt LCW
W.Rank110° ranks 18
Current wind is below 110° avg. (6.8)
Visibility9999 m
Phenomena:N/A
Clouds:Few 025 Hf
Expected CloudBase > 2,400 ft AGL from Temp-Dew spread
CeilingNone
Temp21°C (ISA +6)
Dew Point15°C (69% RH)
QNH1012 hPa
Density Alt879 ft
Elevation-66 ft
Report Wrong Elevation
Raw Report
OINR 220600Z 11004KT 9999 FEW025 21/15 Q1012=

Extra information for OINR:More info

Metar Taf Metar & Taf Last 4 Metars F.Rules Stats Wind Profile Meteogram Temp Stats Airport Information Weather charts Add Link Nearby VenuesMetar ALERT Operation Metar Decoded Social comments